Terminal Aerodrome Forecast
Issued by NWS Cleveland, OH

Home | Current Version | Previous Version | Graphics & Text | Print | Product List | Glossary On
Versions: 1 2 3 4 5 6 7 8 9 10 11 12 13 14 15 16 17 18
000
FTUS41 KCLE 142320
TAFMFD
TAF
KMFD 142320Z 1500/1524 13004KT P6SM BKN250
     FM151200 15008KT P6SM VCSH OVC030
     FM151400 15010KT 2SM -SN OVC015
     FM151600 17011KT 1SM -SN OVC010
     FM152300 20009KT 1 1/2SM -SN OVC010=

USA.gov is the U.S. government's official web portal to all federal, state and local government web resources and services.